sensor_id;sensor_type;location;lat;lon;timestamp;P1;durP1;ratioP1;P2;durP2;ratioP2
51800;SDS011;37855;53.204;6.568;2022-09-29T00:01:08;6.38;;;4.18;;
51800;SDS011;37855;53.204;6.568;2022-09-29T00:03:34;5.63;;;4.00;;
51800;SDS011;37855;53.204;6.568;2022-09-29T00:06:01;6.30;;;3.60;;
51800;SDS011;37855;53.204;6.568;2022-09-29T00:08:27;7.15;;;3.83;;
51800;SDS011;37855;53.204;6.568;2022-09-29T00:10:54;7.78;;;4.03;;
51800;SDS011;37855;53.204;6.568;2022-09-29T00:13:21;6.25;;;4.22;;
51800;SDS011;37855;53.204;6.568;2022-09-29T00:15:54;5.93;;;3.65;;
51800;SDS011;37855;53.204;6.568;2022-09-29T00:18:23;5.40;;;3.88;;
51800;SDS011;37855;53.204;6.568;2022-09-29T00:20:56;5.97;;;4.15;;
51800;SDS011;37855;53.204;6.568;2022-09-29T00:23:26;5.90;;;4.13;;
51800;SDS011;37855;53.204;6.568;2022-09-29T00:28:25;6.97;;;5.32;;
51800;SDS011;37855;53.204;6.568;2022-09-29T00:30:51;6.50;;;4.60;;
51800;SDS011;37855;53.204;6.568;2022-09-29T00:33:16;6.90;;;5.63;;
51800;SDS011;37855;53.204;6.568;2022-09-29T00:35:42;9.32;;;4.63;;
51800;SDS011;37855;53.204;6.568;2022-09-29T00:38:10;6.50;;;4.97;;
51800;SDS011;37855;53.204;6.568;2022-09-29T00:40:36;6.35;;;5.35;;
51800;SDS011;37855;53.204;6.568;2022-09-29T00:43:01;8.90;;;5.65;;
51800;SDS011;37855;53.204;6.568;2022-09-29T00:45:27;7.07;;;5.13;;
51800;SDS011;37855;53.204;6.568;2022-09-29T00:48:02;6.65;;;5.18;;
51800;SDS011;37855;53.204;6.568;2022-09-29T00:50:42;6.40;;;4.72;;
51800;SDS011;37855;53.204;6.568;2022-09-29T00:53:11;7.85;;;5.78;;
51800;SDS011;37855;53.204;6.568;2022-09-29T00:55:43;8.45;;;5.32;;
51800;SDS011;37855;53.204;6.568;2022-09-29T00:58:36;7.82;;;5.18;;
51800;SDS011;37855;53.204;6.568;2022-09-29T01:01:11;6.45;;;5.25;;
51800;SDS011;37855;53.204;6.568;2022-09-29T01:03:41;8.20;;;5.72;;
51800;SDS011;37855;53.204;6.568;2022-09-29T01:06:21;9.10;;;5.88;;
51800;SDS011;37855;53.204;6.568;2022-09-29T01:08:58;7.72;;;6.00;;
51800;SDS011;37855;53.204;6.568;2022-09-29T01:11:29;9.38;;;6.28;;
51800;SDS011;37855;53.204;6.568;2022-09-29T01:13:56;6.90;;;5.82;;
51800;SDS011;37855;53.204;6.568;2022-09-29T01:16:29;10.05;;;6.28;;
51800;SDS011;37855;53.204;6.568;2022-09-29T01:18:57;8.63;;;5.93;;
51800;SDS011;37855;53.204;6.568;2022-09-29T01:24:20;9.65;;;6.20;;
51800;SDS011;37855;53.204;6.568;2022-09-29T01:27:06;9.15;;;6.65;;
51800;SDS011;37855;53.204;6.568;2022-09-29T01:29:53;8.30;;;6.72;;
51800;SDS011;37855;53.204;6.568;2022-09-29T01:43:26;7.80;;;7.00;;
51800;SDS011;37855;53.204;6.568;2022-09-29T01:46:01;10.48;;;7.63;;
51800;SDS011;37855;53.204;6.568;2022-09-29T01:48:38;10.48;;;8.15;;
51800;SDS011;37855;53.204;6.568;2022-09-29T01:51:10;8.68;;;7.63;;
51800;SDS011;37855;53.204;6.568;2022-09-29T01:53:47;10.85;;;8.52;;
51800;SDS011;37855;53.204;6.568;2022-09-29T01:56:18;11.48;;;9.25;;
51800;SDS011;37855;53.204;6.568;2022-09-29T01:58:54;9.30;;;8.32;;
51800;SDS011;37855;53.204;6.568;2022-09-29T02:01:27;11.15;;;8.70;;
51800;SDS011;37855;53.204;6.568;2022-09-29T02:04:17;12.40;;;9.00;;
51800;SDS011;37855;53.204;6.568;2022-09-29T02:06:49;11.18;;;8.85;;
51800;SDS011;37855;53.204;6.568;2022-09-29T02:09:28;9.93;;;8.35;;
51800;SDS011;37855;53.204;6.568;2022-09-29T02:12:00;9.75;;;8.65;;
51800;SDS011;37855;53.204;6.568;2022-09-29T02:14:28;9.52;;;8.52;;
51800;SDS011;37855;53.204;6.568;2022-09-29T02:19:44;12.00;;;9.32;;
51800;SDS011;37855;53.204;6.568;2022-09-29T02:22:11;10.50;;;8.95;;
51800;SDS011;37855;53.204;6.568;2022-09-29T02:24:41;11.43;;;9.15;;
51800;SDS011;37855;53.204;6.568;2022-09-29T02:27:07;9.85;;;8.80;;
51800;SDS011;37855;53.204;6.568;2022-09-29T02:29:34;11.20;;;8.88;;
51800;SDS011;37855;53.204;6.568;2022-09-29T02:32:01;10.20;;;9.20;;
51800;SDS011;37855;53.204;6.568;2022-09-29T02:34:29;11.23;;;9.32;;
51800;SDS011;37855;53.204;6.568;2022-09-29T02:37:13;11.93;;;9.93;;
51800;SDS011;37855;53.204;6.568;2022-09-29T02:43:12;14.70;;;11.10;;
51800;SDS011;37855;53.204;6.568;2022-09-29T02:48:34;12.60;;;9.75;;
51800;SDS011;37855;53.204;6.568;2022-09-29T02:51:26;12.35;;;10.45;;
51800;SDS011;37855;53.204;6.568;2022-09-29T02:54:18;13.95;;;11.23;;
51800;SDS011;37855;53.204;6.568;2022-09-29T02:57:16;12.05;;;10.45;;
51800;SDS011;37855;53.204;6.568;2022-09-29T03:02:38;14.55;;;10.88;;
51800;SDS011;37855;53.204;6.568;2022-09-29T03:05:08;11.73;;;10.20;;
51800;SDS011;37855;53.204;6.568;2022-09-29T03:07:42;12.60;;;10.35;;
51800;SDS011;37855;53.204;6.568;2022-09-29T03:10:09;11.98;;;10.40;;
51800;SDS011;37855;53.204;6.568;2022-09-29T03:12:36;14.73;;;11.27;;
51800;SDS011;37855;53.204;6.568;2022-09-29T03:15:02;12.48;;;11.18;;
51800;SDS011;37855;53.204;6.568;2022-09-29T03:17:31;14.98;;;11.23;;
51800;SDS011;37855;53.204;6.568;2022-09-29T03:19:56;14.27;;;11.25;;
51800;SDS011;37855;53.204;6.568;2022-09-29T03:22:22;13.95;;;11.13;;
51800;SDS011;37855;53.204;6.568;2022-09-29T03:24:48;12.20;;;10.60;;
51800;SDS011;37855;53.204;6.568;2022-09-29T03:27:14;12.38;;;10.90;;
51800;SDS011;37855;53.204;6.568;2022-09-29T03:29:40;12.05;;;10.65;;
51800;SDS011;37855;53.204;6.568;2022-09-29T03:32:06;12.93;;;10.70;;
51800;SDS011;37855;53.204;6.568;2022-09-29T03:34:34;11.27;;;10.15;;
51800;SDS011;37855;53.204;6.568;2022-09-29T03:37:00;12.25;;;10.40;;
51800;SDS011;37855;53.204;6.568;2022-09-29T03:39:27;14.88;;;12.32;;
51800;SDS011;37855;53.204;6.568;2022-09-29T03:41:53;12.43;;;10.88;;
51800;SDS011;37855;53.204;6.568;2022-09-29T03:44:18;12.90;;;11.13;;
51800;SDS011;37855;53.204;6.568;2022-09-29T03:46:44;12.40;;;10.88;;
51800;SDS011;37855;53.204;6.568;2022-09-29T03:49:13;14.60;;;12.50;;
51800;SDS011;37855;53.204;6.568;2022-09-29T03:51:39;13.68;;;10.82;;
51800;SDS011;37855;53.204;6.568;2022-09-29T03:54:06;14.25;;;11.32;;
51800;SDS011;37855;53.204;6.568;2022-09-29T03:56:31;12.52;;;10.80;;
51800;SDS011;37855;53.204;6.568;2022-09-29T03:58:58;11.73;;;10.52;;
51800;SDS011;37855;53.204;6.568;2022-09-29T04:01:24;14.95;;;11.60;;
51800;SDS011;37855;53.204;6.568;2022-09-29T04:03:49;14.95;;;12.13;;
51800;SDS011;37855;53.204;6.568;2022-09-29T04:06:18;12.82;;;11.43;;
51800;SDS011;37855;53.204;6.568;2022-09-29T04:08:44;15.80;;;12.27;;
51800;SDS011;37855;53.204;6.568;2022-09-29T04:11:13;15.95;;;11.52;;
51800;SDS011;37855;53.204;6.568;2022-09-29T04:13:39;13.73;;;12.10;;
51800;SDS011;37855;53.204;6.568;2022-09-29T04:16:05;14.75;;;11.23;;
51800;SDS011;37855;53.204;6.568;2022-09-29T04:18:31;12.73;;;11.35;;
51800;SDS011;37855;53.204;6.568;2022-09-29T04:20:57;14.35;;;11.77;;
51800;SDS011;37855;53.204;6.568;2022-09-29T04:23:27;12.93;;;11.15;;
51800;SDS011;37855;53.204;6.568;2022-09-29T04:25:55;13.48;;;11.70;;
51800;SDS011;37855;53.204;6.568;2022-09-29T04:28:21;15.07;;;11.77;;
51800;SDS011;37855;53.204;6.568;2022-09-29T04:30:47;14.88;;;12.13;;
51800;SDS011;37855;53.204;6.568;2022-09-29T04:33:13;14.80;;;11.75;;
51800;SDS011;37855;53.204;6.568;2022-09-29T04:35:39;15.75;;;13.00;;
51800;SDS011;37855;53.204;6.568;2022-09-29T04:38:04;14.80;;;11.40;;
51800;SDS011;37855;53.204;6.568;2022-09-29T04:40:32;14.25;;;11.88;;
51800;SDS011;37855;53.204;6.568;2022-09-29T04:42:58;14.82;;;12.48;;
51800;SDS011;37855;53.204;6.568;2022-09-29T04:45:24;14.63;;;11.38;;
51800;SDS011;37855;53.204;6.568;2022-09-29T04:47:50;17.58;;;14.05;;
51800;SDS011;37855;53.204;6.568;2022-09-29T04:50:16;14.45;;;11.90;;
51800;SDS011;37855;53.204;6.568;2022-09-29T04:52:42;12.82;;;11.18;;
51800;SDS011;37855;53.204;6.568;2022-09-29T04:55:08;14.30;;;11.25;;
51800;SDS011;37855;53.204;6.568;2022-09-29T04:57:35;16.48;;;11.90;;
51800;SDS011;37855;53.204;6.568;2022-09-29T05:00:03;15.73;;;11.77;;
51800;SDS011;37855;53.204;6.568;2022-09-29T05:02:29;18.70;;;11.68;;
51800;SDS011;37855;53.204;6.568;2022-09-29T05:04:55;15.48;;;12.07;;
51800;SDS011;37855;53.204;6.568;2022-09-29T05:07:21;18.17;;;13.15;;
51800;SDS011;37855;53.204;6.568;2022-09-29T05:09:47;16.00;;;11.80;;
51800;SDS011;37855;53.204;6.568;2022-09-29T05:12:13;13.75;;;12.02;;
51800;SDS011;37855;53.204;6.568;2022-09-29T05:14:39;14.10;;;11.38;;
51800;SDS011;37855;53.204;6.568;2022-09-29T05:17:04;13.63;;;12.13;;
51800;SDS011;37855;53.204;6.568;2022-09-29T05:19:31;15.10;;;12.50;;
51800;SDS011;37855;53.204;6.568;2022-09-29T05:21:57;14.60;;;12.55;;
51800;SDS011;37855;53.204;6.568;2022-09-29T05:24:24;15.45;;;13.20;;
51800;SDS011;37855;53.204;6.568;2022-09-29T05:27:02;16.10;;;12.90;;
51800;SDS011;37855;53.204;6.568;2022-09-29T05:29:28;16.90;;;15.00;;
51800;SDS011;37855;53.204;6.568;2022-09-29T05:31:54;18.88;;;14.68;;
51800;SDS011;37855;53.204;6.568;2022-09-29T05:34:19;17.10;;;14.07;;
51800;SDS011;37855;53.204;6.568;2022-09-29T05:36:48;18.40;;;15.15;;
51800;SDS011;37855;53.204;6.568;2022-09-29T05:39:14;21.85;;;14.48;;
51800;SDS011;37855;53.204;6.568;2022-09-29T05:41:41;20.40;;;14.18;;
51800;SDS011;37855;53.204;6.568;2022-09-29T05:44:07;20.23;;;14.80;;
51800;SDS011;37855;53.204;6.568;2022-09-29T05:46:34;17.65;;;13.88;;
51800;SDS011;37855;53.204;6.568;2022-09-29T05:49:00;18.10;;;14.43;;
51800;SDS011;37855;53.204;6.568;2022-09-29T05:51:26;17.63;;;13.77;;
51800;SDS011;37855;53.204;6.568;2022-09-29T05:53:52;19.13;;;13.50;;
51800;SDS011;37855;53.204;6.568;2022-09-29T05:56:22;17.58;;;12.50;;
51800;SDS011;37855;53.204;6.568;2022-09-29T05:58:55;14.52;;;12.40;;
51800;SDS011;37855;53.204;6.568;2022-09-29T06:01:22;14.48;;;12.20;;
51800;SDS011;37855;53.204;6.568;2022-09-29T06:03:49;14.70;;;12.40;;
51800;SDS011;37855;53.204;6.568;2022-09-29T06:06:18;18.52;;;11.95;;
51800;SDS011;37855;53.204;6.568;2022-09-29T06:08:46;16.95;;;12.27;;
51800;SDS011;37855;53.204;6.568;2022-09-29T06:11:17;14.52;;;12.10;;
51800;SDS011;37855;53.204;6.568;2022-09-29T06:13:53;14.65;;;11.93;;
51800;SDS011;37855;53.204;6.568;2022-09-29T06:16:21;15.43;;;12.32;;
51800;SDS011;37855;53.204;6.568;2022-09-29T06:18:48;13.57;;;11.82;;
51800;SDS011;37855;53.204;6.568;2022-09-29T06:21:17;19.33;;;11.65;;
51800;SDS011;37855;53.204;6.568;2022-09-29T06:23:48;13.95;;;12.20;;
51800;SDS011;37855;53.204;6.568;2022-09-29T06:26:15;14.73;;;12.32;;
51800;SDS011;37855;53.204;6.568;2022-09-29T06:28:43;15.90;;;12.43;;
51800;SDS011;37855;53.204;6.568;2022-09-29T06:31:16;17.55;;;13.98;;
51800;SDS011;37855;53.204;6.568;2022-09-29T06:33:49;16.25;;;12.82;;
51800;SDS011;37855;53.204;6.568;2022-09-29T06:36:18;17.60;;;13.07;;
51800;SDS011;37855;53.204;6.568;2022-09-29T06:39:09;16.75;;;13.10;;
51800;SDS011;37855;53.204;6.568;2022-09-29T06:41:36;16.35;;;12.82;;
51800;SDS011;37855;53.204;6.568;2022-09-29T06:44:05;16.80;;;13.68;;
51800;SDS011;37855;53.204;6.568;2022-09-29T06:46:31;15.75;;;12.43;;
51800;SDS011;37855;53.204;6.568;2022-09-29T06:48:57;17.83;;;13.35;;
51800;SDS011;37855;53.204;6.568;2022-09-29T06:51:23;21.50;;;13.48;;
51800;SDS011;37855;53.204;6.568;2022-09-29T06:53:49;17.42;;;13.80;;
51800;SDS011;37855;53.204;6.568;2022-09-29T06:56:16;17.38;;;14.00;;
51800;SDS011;37855;53.204;6.568;2022-09-29T06:58:43;20.90;;;13.85;;
51800;SDS011;37855;53.204;6.568;2022-09-29T07:01:11;18.00;;;13.90;;
51800;SDS011;37855;53.204;6.568;2022-09-29T07:03:37;19.65;;;14.30;;
51800;SDS011;37855;53.204;6.568;2022-09-29T07:06:04;20.92;;;13.63;;
51800;SDS011;37855;53.204;6.568;2022-09-29T07:08:32;20.33;;;14.05;;
51800;SDS011;37855;53.204;6.568;2022-09-29T07:11:00;19.20;;;14.20;;
51800;SDS011;37855;53.204;6.568;2022-09-29T07:13:29;21.33;;;14.75;;
51800;SDS011;37855;53.204;6.568;2022-09-29T07:15:55;16.85;;;15.05;;
51800;SDS011;37855;53.204;6.568;2022-09-29T07:18:21;16.50;;;13.77;;
51800;SDS011;37855;53.204;6.568;2022-09-29T07:20:46;19.35;;;14.35;;
51800;SDS011;37855;53.204;6.568;2022-09-29T07:23:12;16.50;;;14.20;;
51800;SDS011;37855;53.204;6.568;2022-09-29T07:25:38;15.73;;;13.98;;
51800;SDS011;37855;53.204;6.568;2022-09-29T07:28:04;19.95;;;14.57;;
51800;SDS011;37855;53.204;6.568;2022-09-29T07:30:33;18.95;;;15.40;;
51800;SDS011;37855;53.204;6.568;2022-09-29T07:33:01;21.67;;;14.70;;
51800;SDS011;37855;53.204;6.568;2022-09-29T07:35:26;20.85;;;14.85;;
51800;SDS011;37855;53.204;6.568;2022-09-29T07:37:52;20.02;;;15.95;;
51800;SDS011;37855;53.204;6.568;2022-09-29T07:40:19;18.13;;;14.70;;
51800;SDS011;37855;53.204;6.568;2022-09-29T07:42:47;18.88;;;14.90;;
51800;SDS011;37855;53.204;6.568;2022-09-29T07:45:14;18.63;;;15.80;;
51800;SDS011;37855;53.204;6.568;2022-09-29T07:47:46;19.20;;;15.70;;
51800;SDS011;37855;53.204;6.568;2022-09-29T07:50:11;20.58;;;15.70;;
51800;SDS011;37855;53.204;6.568;2022-09-29T07:52:37;19.98;;;16.05;;
51800;SDS011;37855;53.204;6.568;2022-09-29T07:55:03;26.58;;;15.85;;
51800;SDS011;37855;53.204;6.568;2022-09-29T07:57:34;18.40;;;14.80;;
51800;SDS011;37855;53.204;6.568;2022-09-29T08:00:02;19.10;;;14.50;;
51800;SDS011;37855;53.204;6.568;2022-09-29T08:02:28;18.58;;;14.65;;
51800;SDS011;37855;53.204;6.568;2022-09-29T08:04:55;23.65;;;14.65;;
51800;SDS011;37855;53.204;6.568;2022-09-29T08:07:21;16.67;;;14.15;;
51800;SDS011;37855;53.204;6.568;2022-09-29T08:09:46;17.65;;;14.57;;
51800;SDS011;37855;53.204;6.568;2022-09-29T08:12:13;18.55;;;14.32;;
51800;SDS011;37855;53.204;6.568;2022-09-29T08:14:38;18.67;;;15.05;;
51800;SDS011;37855;53.204;6.568;2022-09-29T08:17:04;20.73;;;15.75;;
51800;SDS011;37855;53.204;6.568;2022-09-29T08:19:30;21.33;;;15.07;;
51800;SDS011;37855;53.204;6.568;2022-09-29T08:21:55;18.40;;;14.82;;
51800;SDS011;37855;53.204;6.568;2022-09-29T08:24:21;17.20;;;15.05;;
51800;SDS011;37855;53.204;6.568;2022-09-29T08:26:47;19.98;;;14.75;;
51800;SDS011;37855;53.204;6.568;2022-09-29T08:29:13;19.63;;;15.43;;
51800;SDS011;37855;53.204;6.568;2022-09-29T08:31:39;20.80;;;15.85;;
51800;SDS011;37855;53.204;6.568;2022-09-29T08:34:06;18.27;;;14.27;;
51800;SDS011;37855;53.204;6.568;2022-09-29T08:36:31;20.45;;;15.25;;
51800;SDS011;37855;53.204;6.568;2022-09-29T08:38:57;19.80;;;15.30;;
51800;SDS011;37855;53.204;6.568;2022-09-29T08:44:06;20.75;;;14.80;;
51800;SDS011;37855;53.204;6.568;2022-09-29T08:46:39;19.77;;;16.15;;
51800;SDS011;37855;53.204;6.568;2022-09-29T08:49:10;20.17;;;15.63;;
51800;SDS011;37855;53.204;6.568;2022-09-29T08:51:52;20.52;;;14.88;;
51800;SDS011;37855;53.204;6.568;2022-09-29T08:54:36;18.48;;;15.05;;
51800;SDS011;37855;53.204;6.568;2022-09-29T08:57:06;17.95;;;14.55;;
51800;SDS011;37855;53.204;6.568;2022-09-29T08:59:41;20.88;;;15.43;;
51800;SDS011;37855;53.204;6.568;2022-09-29T09:16:37;15.15;;;10.55;;
51800;SDS011;37855;53.204;6.568;2022-09-29T09:22:02;13.48;;;9.48;;
51800;SDS011;37855;53.204;6.568;2022-09-29T09:25:00;11.48;;;8.85;;
51800;SDS011;37855;53.204;6.568;2022-09-29T09:27:39;10.15;;;8.45;;
51800;SDS011;37855;53.204;6.568;2022-09-29T09:30:12;11.85;;;9.30;;
51800;SDS011;37855;53.204;6.568;2022-09-29T09:32:51;13.07;;;9.38;;
51800;SDS011;37855;53.204;6.568;2022-09-29T09:35:29;12.73;;;8.88;;
51800;SDS011;37855;53.204;6.568;2022-09-29T09:38:03;16.15;;;9.50;;
51800;SDS011;37855;53.204;6.568;2022-09-29T09:40:39;12.52;;;9.57;;
51800;SDS011;37855;53.204;6.568;2022-09-29T09:43:17;13.27;;;8.80;;
51800;SDS011;37855;53.204;6.568;2022-09-29T09:45:50;12.27;;;7.45;;
51800;SDS011;37855;53.204;6.568;2022-09-29T09:51:10;8.63;;;6.60;;
51800;SDS011;37855;53.204;6.568;2022-09-29T09:53:52;9.23;;;6.60;;
51800;SDS011;37855;53.204;6.568;2022-09-29T09:56:35;12.57;;;6.22;;
51800;SDS011;37855;53.204;6.568;2022-09-29T10:02:19;11.00;;;4.43;;
51800;SDS011;37855;53.204;6.568;2022-09-29T10:04:47;9.38;;;3.90;;
51800;SDS011;37855;53.204;6.568;2022-09-29T10:07:19;7.35;;;3.90;;
51800;SDS011;37855;53.204;6.568;2022-09-29T10:09:46;7.63;;;3.40;;
51800;SDS011;37855;53.204;6.568;2022-09-29T10:12:20;6.97;;;3.58;;
51800;SDS011;37855;53.204;6.568;2022-09-29T10:17:29;7.28;;;3.78;;
51800;SDS011;37855;53.204;6.568;2022-09-29T10:20:05;4.93;;;3.47;;
51800;SDS011;37855;53.204;6.568;2022-09-29T10:22:35;5.68;;;3.03;;
51800;SDS011;37855;53.204;6.568;2022-09-29T10:27:44;5.80;;;3.25;;
51800;SDS011;37855;53.204;6.568;2022-09-29T10:30:20;8.70;;;3.70;;
51800;SDS011;37855;53.204;6.568;2022-09-29T10:32:52;5.60;;;2.50;;
51800;SDS011;37855;53.204;6.568;2022-09-29T10:40:55;4.97;;;2.47;;
51800;SDS011;37855;53.204;6.568;2022-09-29T10:43:47;4.25;;;2.33;;
51800;SDS011;37855;53.204;6.568;2022-09-29T10:49:17;3.15;;;1.92;;
51800;SDS011;37855;53.204;6.568;2022-09-29T10:54:30;3.17;;;1.80;;
51800;SDS011;37855;53.204;6.568;2022-09-29T10:56:58;5.05;;;2.50;;
51800;SDS011;37855;53.204;6.568;2022-09-29T10:59:34;5.20;;;2.40;;
51800;SDS011;37855;53.204;6.568;2022-09-29T11:02:09;6.45;;;2.22;;
51800;SDS011;37855;53.204;6.568;2022-09-29T11:04:48;4.40;;;1.88;;
51800;SDS011;37855;53.204;6.568;2022-09-29T11:07:15;6.53;;;2.17;;
51800;SDS011;37855;53.204;6.568;2022-09-29T11:09:44;12.38;;;2.38;;
51800;SDS011;37855;53.204;6.568;2022-09-29T11:14:58;9.30;;;2.42;;
51800;SDS011;37855;53.204;6.568;2022-09-29T11:17:29;5.88;;;2.20;;
51800;SDS011;37855;53.204;6.568;2022-09-29T11:27:47;7.47;;;2.03;;
51800;SDS011;37855;53.204;6.568;2022-09-29T11:36:03;2.95;;;1.50;;
51800;SDS011;37855;53.204;6.568;2022-09-29T11:39:05;3.22;;;1.50;;
51800;SDS011;37855;53.204;6.568;2022-09-29T11:49:43;4.55;;;2.28;;
51800;SDS011;37855;53.204;6.568;2022-09-29T11:52:45;3.90;;;2.28;;
51800;SDS011;37855;53.204;6.568;2022-09-29T11:58:39;4.18;;;1.58;;
51800;SDS011;37855;53.204;6.568;2022-09-29T12:01:25;4.38;;;1.60;;
51800;SDS011;37855;53.204;6.568;2022-09-29T12:06:55;5.63;;;1.90;;
51800;SDS011;37855;53.204;6.568;2022-09-29T12:17:57;2.42;;;0.80;;
51800;SDS011;37855;53.204;6.568;2022-09-29T12:20:35;2.20;;;0.90;;
51800;SDS011;37855;53.204;6.568;2022-09-29T12:25:54;3.95;;;1.13;;
51800;SDS011;37855;53.204;6.568;2022-09-29T12:28:28;2.22;;;1.23;;
51800;SDS011;37855;53.204;6.568;2022-09-29T12:31:00;2.20;;;1.10;;
51800;SDS011;37855;53.204;6.568;2022-09-29T12:33:43;2.47;;;1.05;;
51800;SDS011;37855;53.204;6.568;2022-09-29T12:42:14;2.35;;;0.80;;
51800;SDS011;37855;53.204;6.568;2022-09-29T12:50:33;1.25;;;0.70;;
51800;SDS011;37855;53.204;6.568;2022-09-29T12:53:08;2.25;;;0.68;;
51800;SDS011;37855;53.204;6.568;2022-09-29T12:58:53;7.60;;;3.72;;
51800;SDS011;37855;53.204;6.568;2022-09-29T13:01:33;3.28;;;1.60;;
51800;SDS011;37855;53.204;6.568;2022-09-29T13:12:29;2.00;;;0.70;;
51800;SDS011;37855;53.204;6.568;2022-09-29T13:28:37;1.73;;;0.80;;
51800;SDS011;37855;53.204;6.568;2022-09-29T13:31:12;2.25;;;0.90;;
51800;SDS011;37855;53.204;6.568;2022-09-29T13:33:45;2.17;;;1.00;;
51800;SDS011;37855;53.204;6.568;2022-09-29T13:36:30;1.75;;;0.80;;
51800;SDS011;37855;53.204;6.568;2022-09-29T13:39:00;2.53;;;1.08;;
51800;SDS011;37855;53.204;6.568;2022-09-29T13:41:44;2.28;;;1.05;;
51800;SDS011;37855;53.204;6.568;2022-09-29T13:46:42;2.80;;;0.73;;
51800;SDS011;37855;53.204;6.568;2022-09-29T13:59:43;2.53;;;0.60;;
51800;SDS011;37855;53.204;6.568;2022-09-29T14:05:04;1.33;;;0.50;;
51800;SDS011;37855;53.204;6.568;2022-09-29T14:08:06;1.98;;;0.50;;
51800;SDS011;37855;53.204;6.568;2022-09-29T14:10:45;2.15;;;0.60;;
51800;SDS011;37855;53.204;6.568;2022-09-29T14:13:18;3.78;;;0.63;;
51800;SDS011;37855;53.204;6.568;2022-09-29T14:18:30;2.60;;;0.88;;
51800;SDS011;37855;53.204;6.568;2022-09-29T14:21:10;1.38;;;0.70;;
51800;SDS011;37855;53.204;6.568;2022-09-29T14:29:16;2.15;;;0.80;;
51800;SDS011;37855;53.204;6.568;2022-09-29T14:31:57;2.75;;;0.60;;
51800;SDS011;37855;53.204;6.568;2022-09-29T14:34:28;2.50;;;0.80;;
51800;SDS011;37855;53.204;6.568;2022-09-29T14:36:57;2.95;;;0.90;;
51800;SDS011;37855;53.204;6.568;2022-09-29T14:39:25;5.43;;;1.20;;
51800;SDS011;37855;53.204;6.568;2022-09-29T14:41:51;4.28;;;1.40;;
51800;SDS011;37855;53.204;6.568;2022-09-29T14:44:25;2.78;;;1.00;;
51800;SDS011;37855;53.204;6.568;2022-09-29T14:47:24;4.03;;;0.70;;
51800;SDS011;37855;53.204;6.568;2022-09-29T14:56:38;3.10;;;1.15;;
51800;SDS011;37855;53.204;6.568;2022-09-29T15:04:44;4.70;;;1.38;;
51800;SDS011;37855;53.204;6.568;2022-09-29T15:07:15;11.68;;;1.75;;
51800;SDS011;37855;53.204;6.568;2022-09-29T15:09:55;5.03;;;1.75;;
51800;SDS011;37855;53.204;6.568;2022-09-29T15:14:55;3.20;;;1.00;;
51800;SDS011;37855;53.204;6.568;2022-09-29T15:25:58;3.42;;;0.98;;
51800;SDS011;37855;53.204;6.568;2022-09-29T15:30:59;2.65;;;0.77;;
51800;SDS011;37855;53.204;6.568;2022-09-29T15:33:34;3.03;;;0.80;;
51800;SDS011;37855;53.204;6.568;2022-09-29T15:36:16;4.57;;;0.98;;
51800;SDS011;37855;53.204;6.568;2022-09-29T15:38:45;3.65;;;1.15;;
51800;SDS011;37855;53.204;6.568;2022-09-29T15:41:15;2.85;;;0.80;;
51800;SDS011;37855;53.204;6.568;2022-09-29T15:43:57;2.47;;;0.80;;
51800;SDS011;37855;53.204;6.568;2022-09-29T15:46:51;4.40;;;0.80;;
51800;SDS011;37855;53.204;6.568;2022-09-29T15:49:22;1.80;;;0.80;;
51800;SDS011;37855;53.204;6.568;2022-09-29T15:51:56;5.75;;;1.20;;
51800;SDS011;37855;53.204;6.568;2022-09-29T15:54:33;4.85;;;1.30;;
51800;SDS011;37855;53.204;6.568;2022-09-29T15:57:03;2.42;;;1.00;;
51800;SDS011;37855;53.204;6.568;2022-09-29T15:59:51;1.50;;;0.80;;
51800;SDS011;37855;53.204;6.568;2022-09-29T16:02:29;2.65;;;0.80;;
51800;SDS011;37855;53.204;6.568;2022-09-29T16:04:57;10.98;;;1.30;;
51800;SDS011;37855;53.204;6.568;2022-09-29T16:07:30;4.30;;;1.20;;
51800;SDS011;37855;53.204;6.568;2022-09-29T16:10:04;2.70;;;1.10;;
51800;SDS011;37855;53.204;6.568;2022-09-29T16:12:46;3.85;;;2.08;;
51800;SDS011;37855;53.204;6.568;2022-09-29T16:15:27;4.60;;;1.65;;
51800;SDS011;37855;53.204;6.568;2022-09-29T16:17:53;4.68;;;1.52;;
51800;SDS011;37855;53.204;6.568;2022-09-29T16:20:23;5.82;;;0.80;;
51800;SDS011;37855;53.204;6.568;2022-09-29T16:22:53;2.83;;;1.00;;
51800;SDS011;37855;53.204;6.568;2022-09-29T16:25:30;3.05;;;1.23;;
51800;SDS011;37855;53.204;6.568;2022-09-29T16:27:59;3.72;;;1.10;;
51800;SDS011;37855;53.204;6.568;2022-09-29T16:30:32;2.83;;;0.98;;
51800;SDS011;37855;53.204;6.568;2022-09-29T16:40:44;3.85;;;1.20;;
51800;SDS011;37855;53.204;6.568;2022-09-29T16:43:21;6.30;;;1.88;;
51800;SDS011;37855;53.204;6.568;2022-09-29T16:45:51;4.47;;;1.38;;
51800;SDS011;37855;53.204;6.568;2022-09-29T16:48:24;4.25;;;1.38;;
51800;SDS011;37855;53.204;6.568;2022-09-29T16:50:53;2.47;;;1.10;;
51800;SDS011;37855;53.204;6.568;2022-09-29T16:53:27;5.60;;;1.20;;
51800;SDS011;37855;53.204;6.568;2022-09-29T16:56:07;2.95;;;1.05;;
51800;SDS011;37855;53.204;6.568;2022-09-29T16:58:42;3.85;;;1.60;;
51800;SDS011;37855;53.204;6.568;2022-09-29T17:01:08;4.05;;;1.70;;
51800;SDS011;37855;53.204;6.568;2022-09-29T17:03:39;5.10;;;2.70;;
51800;SDS011;37855;53.204;6.568;2022-09-29T17:06:13;5.53;;;2.10;;
51800;SDS011;37855;53.204;6.568;2022-09-29T17:08:39;4.85;;;1.92;;
51800;SDS011;37855;53.204;6.568;2022-09-29T17:11:06;5.10;;;1.70;;
51800;SDS011;37855;53.204;6.568;2022-09-29T17:13:34;3.35;;;1.73;;
51800;SDS011;37855;53.204;6.568;2022-09-29T17:16:00;4.80;;;1.60;;
51800;SDS011;37855;53.204;6.568;2022-09-29T17:18:26;4.22;;;1.95;;
51800;SDS011;37855;53.204;6.568;2022-09-29T17:20:53;3.90;;;1.98;;
51800;SDS011;37855;53.204;6.568;2022-09-29T17:23:19;4.47;;;1.70;;
51800;SDS011;37855;53.204;6.568;2022-09-29T17:25:49;3.45;;;1.73;;
51800;SDS011;37855;53.204;6.568;2022-09-29T17:28:37;3.70;;;1.77;;
51800;SDS011;37855;53.204;6.568;2022-09-29T17:31:04;4.68;;;1.95;;
51800;SDS011;37855;53.204;6.568;2022-09-29T17:33:36;3.78;;;2.15;;
51800;SDS011;37855;53.204;6.568;2022-09-29T17:36:06;4.97;;;2.08;;
51800;SDS011;37855;53.204;6.568;2022-09-29T17:38:37;3.47;;;1.73;;
51800;SDS011;37855;53.204;6.568;2022-09-29T17:41:07;4.05;;;2.00;;
51800;SDS011;37855;53.204;6.568;2022-09-29T17:43:41;3.22;;;1.58;;
51800;SDS011;37855;53.204;6.568;2022-09-29T17:46:12;4.05;;;1.95;;
51800;SDS011;37855;53.204;6.568;2022-09-29T17:48:39;3.65;;;2.00;;
51800;SDS011;37855;53.204;6.568;2022-09-29T17:51:10;3.92;;;1.85;;
51800;SDS011;37855;53.204;6.568;2022-09-29T17:53:37;3.13;;;1.70;;
51800;SDS011;37855;53.204;6.568;2022-09-29T17:56:03;2.78;;;1.45;;
51800;SDS011;37855;53.204;6.568;2022-09-29T17:58:29;7.15;;;2.17;;
51800;SDS011;37855;53.204;6.568;2022-09-29T18:00:55;3.85;;;1.83;;
51800;SDS011;37855;53.204;6.568;2022-09-29T18:03:22;3.30;;;1.75;;
51800;SDS011;37855;53.204;6.568;2022-09-29T18:05:49;5.93;;;2.20;;
51800;SDS011;37855;53.204;6.568;2022-09-29T18:08:26;3.53;;;2.20;;
51800;SDS011;37855;53.204;6.568;2022-09-29T18:10:54;4.93;;;2.00;;
51800;SDS011;37855;53.204;6.568;2022-09-29T18:13:20;5.60;;;3.00;;
51800;SDS011;37855;53.204;6.568;2022-09-29T18:15:47;5.75;;;3.05;;
51800;SDS011;37855;53.204;6.568;2022-09-29T18:18:14;4.45;;;2.60;;
51800;SDS011;37855;53.204;6.568;2022-09-29T18:20:42;3.53;;;2.00;;
51800;SDS011;37855;53.204;6.568;2022-09-29T18:23:22;4.50;;;1.90;;
51800;SDS011;37855;53.204;6.568;2022-09-29T18:25:49;5.60;;;2.78;;